sensor_id;sensor_type;location;lat;lon;timestamp;temperature;humidity
48936;DHT22;34745;52.276;10.528;2023-08-01T00:01:44;17.10;99.90
48936;DHT22;34745;52.276;10.528;2023-08-01T00:04:11;17.10;99.90
48936;DHT22;34745;52.276;10.528;2023-08-01T00:06:38;17.10;99.90
48936;DHT22;34745;52.276;10.528;2023-08-01T00:09:06;17.20;99.90
48936;DHT22;34745;52.276;10.528;2023-08-01T00:11:33;17.20;99.90
48936;DHT22;34745;52.276;10.528;2023-08-01T00:14:00;17.10;99.90
48936;DHT22;34745;52.276;10.528;2023-08-01T00:16:29;17.20;99.90
48936;DHT22;34745;52.276;10.528;2023-08-01T00:18:57;17.20;99.90
48936;DHT22;34745;52.276;10.528;2023-08-01T00:21:25;17.20;99.90
48936;DHT22;34745;52.276;10.528;2023-08-01T00:23:52;17.20;99.90
48936;DHT22;34745;52.276;10.528;2023-08-01T00:26:19;17.20;99.90
48936;DHT22;34745;52.276;10.528;2023-08-01T00:28:46;17.20;99.90
48936;DHT22;34745;52.276;10.528;2023-08-01T00:31:13;17.10;99.90
48936;DHT22;34745;52.276;10.528;2023-08-01T00:33:41;17.20;99.90
48936;DHT22;34745;52.276;10.528;2023-08-01T00:36:08;17.10;99.90
48936;DHT22;34745;52.276;10.528;2023-08-01T00:38:38;17.10;99.90
48936;DHT22;34745;52.276;10.528;2023-08-01T00:41:05;17.10;99.90
48936;DHT22;34745;52.276;10.528;2023-08-01T00:43:32;17.10;99.90
48936;DHT22;34745;52.276;10.528;2023-08-01T00:46:00;17.10;99.90
48936;DHT22;34745;52.276;10.528;2023-08-01T00:48:29;15.90;99.90
48936;DHT22;34745;52.276;10.528;2023-08-01T00:50:58;17.10;99.90
48936;DHT22;34745;52.276;10.528;2023-08-01T00:53:25;17.10;99.90
48936;DHT22;34745;52.276;10.528;2023-08-01T00:55:52;17.10;99.90
48936;DHT22;34745;52.276;10.528;2023-08-01T00:58:20;17.10;99.90
48936;DHT22;34745;52.276;10.528;2023-08-01T01:00:47;17.10;99.90
48936;DHT22;34745;52.276;10.528;2023-08-01T01:03:16;17.10;99.90
48936;DHT22;34745;52.276;10.528;2023-08-01T01:05:49;17.10;99.90
48936;DHT22;34745;52.276;10.528;2023-08-01T01:08:20;17.00;99.90
48936;DHT22;34745;52.276;10.528;2023-08-01T01:10:48;17.00;99.90
48936;DHT22;34745;52.276;10.528;2023-08-01T01:13:15;17.10;99.90
48936;DHT22;34745;52.276;10.528;2023-08-01T01:15:42;17.10;99.90
48936;DHT22;34745;52.276;10.528;2023-08-01T01:18:15;17.10;99.90
48936;DHT22;34745;52.276;10.528;2023-08-01T01:20:43;17.00;99.90
48936;DHT22;34745;52.276;10.528;2023-08-01T01:23:11;17.10;99.90
48936;DHT22;34745;52.276;10.528;2023-08-01T01:25:39;17.00;99.90
48936;DHT22;34745;52.276;10.528;2023-08-01T01:28:07;17.00;99.90
48936;DHT22;34745;52.276;10.528;2023-08-01T01:30:35;17.00;99.90
48936;DHT22;34745;52.276;10.528;2023-08-01T01:33:03;17.00;99.90
48936;DHT22;34745;52.276;10.528;2023-08-01T01:35:33;17.00;99.90
48936;DHT22;34745;52.276;10.528;2023-08-01T01:38:03;17.00;99.90
48936;DHT22;34745;52.276;10.528;2023-08-01T01:40:31;17.00;99.90
48936;DHT22;34745;52.276;10.528;2023-08-01T01:42:58;17.00;99.90
48936;DHT22;34745;52.276;10.528;2023-08-01T01:45:26;17.00;99.90
48936;DHT22;34745;52.276;10.528;2023-08-01T01:47:53;17.00;99.90
48936;DHT22;34745;52.276;10.528;2023-08-01T01:50:20;17.00;99.90
48936;DHT22;34745;52.276;10.528;2023-08-01T01:52:47;17.00;99.90
48936;DHT22;34745;52.276;10.528;2023-08-01T01:55:15;17.00;99.90
48936;DHT22;34745;52.276;10.528;2023-08-01T01:57:43;17.00;99.90
48936;DHT22;34745;52.276;10.528;2023-08-01T02:00:11;17.00;99.90
48936;DHT22;34745;52.276;10.528;2023-08-01T02:02:38;17.00;99.90
48936;DHT22;34745;52.276;10.528;2023-08-01T02:05:06;17.10;99.90
48936;DHT22;34745;52.276;10.528;2023-08-01T02:07:33;17.10;99.90
48936;DHT22;34745;52.276;10.528;2023-08-01T02:10:01;17.00;99.90
48936;DHT22;34745;52.276;10.528;2023-08-01T02:12:29;17.00;99.90
48936;DHT22;34745;52.276;10.528;2023-08-01T02:15:01;17.10;99.90
48936;DHT22;34745;52.276;10.528;2023-08-01T02:17:28;17.00;99.90
48936;DHT22;34745;52.276;10.528;2023-08-01T02:19:55;17.00;99.90
48936;DHT22;34745;52.276;10.528;2023-08-01T02:22:24;17.10;99.90
48936;DHT22;34745;52.276;10.528;2023-08-01T02:24:52;17.00;99.90
48936;DHT22;34745;52.276;10.528;2023-08-01T02:27:19;17.00;99.90
48936;DHT22;34745;52.276;10.528;2023-08-01T02:29:47;17.00;99.90
48936;DHT22;34745;52.276;10.528;2023-08-01T02:32:14;17.00;99.90
48936;DHT22;34745;52.276;10.528;2023-08-01T02:34:41;17.00;99.90
48936;DHT22;34745;52.276;10.528;2023-08-01T02:37:08;16.90;99.90
48936;DHT22;34745;52.276;10.528;2023-08-01T02:39:35;16.90;99.90
48936;DHT22;34745;52.276;10.528;2023-08-01T02:42:03;16.80;99.90
48936;DHT22;34745;52.276;10.528;2023-08-01T02:44:30;16.80;99.90
48936;DHT22;34745;52.276;10.528;2023-08-01T02:46:58;16.70;99.90
48936;DHT22;34745;52.276;10.528;2023-08-01T02:49:25;16.70;99.90
48936;DHT22;34745;52.276;10.528;2023-08-01T02:51:52;16.80;99.90
48936;DHT22;34745;52.276;10.528;2023-08-01T02:54:19;16.70;99.90
48936;DHT22;34745;52.276;10.528;2023-08-01T02:56:46;16.70;99.90
48936;DHT22;34745;52.276;10.528;2023-08-01T02:59:13;16.80;99.90
48936;DHT22;34745;52.276;10.528;2023-08-01T03:01:40;16.90;99.90
48936;DHT22;34745;52.276;10.528;2023-08-01T03:04:09;16.80;99.90
48936;DHT22;34745;52.276;10.528;2023-08-01T03:06:38;16.80;99.90
48936;DHT22;34745;52.276;10.528;2023-08-01T03:09:06;16.80;99.90
48936;DHT22;34745;52.276;10.528;2023-08-01T03:11:36;16.80;99.90
48936;DHT22;34745;52.276;10.528;2023-08-01T03:14:04;16.80;99.90
48936;DHT22;34745;52.276;10.528;2023-08-01T03:16:31;16.80;99.90
48936;DHT22;34745;52.276;10.528;2023-08-01T03:18:58;16.80;99.90
48936;DHT22;34745;52.276;10.528;2023-08-01T03:21:33;16.80;99.90
48936;DHT22;34745;52.276;10.528;2023-08-01T03:24:02;16.80;99.90
48936;DHT22;34745;52.276;10.528;2023-08-01T03:26:30;16.80;99.90
48936;DHT22;34745;52.276;10.528;2023-08-01T03:28:57;16.90;99.90
48936;DHT22;34745;52.276;10.528;2023-08-01T03:31:24;16.90;99.90
48936;DHT22;34745;52.276;10.528;2023-08-01T03:33:51;16.90;99.90
48936;DHT22;34745;52.276;10.528;2023-08-01T03:36:18;16.90;99.90
48936;DHT22;34745;52.276;10.528;2023-08-01T03:38:47;16.90;99.90
48936;DHT22;34745;52.276;10.528;2023-08-01T03:41:14;16.90;99.90
48936;DHT22;34745;52.276;10.528;2023-08-01T03:43:41;16.80;99.90
48936;DHT22;34745;52.276;10.528;2023-08-01T03:46:08;16.80;99.90
48936;DHT22;34745;52.276;10.528;2023-08-01T03:48:35;16.80;99.90
48936;DHT22;34745;52.276;10.528;2023-08-01T03:51:03;16.80;99.90
48936;DHT22;34745;52.276;10.528;2023-08-01T03:53:30;16.80;99.90
48936;DHT22;34745;52.276;10.528;2023-08-01T03:55:59;16.80;99.90
48936;DHT22;34745;52.276;10.528;2023-08-01T03:58:26;16.80;99.90
48936;DHT22;34745;52.276;10.528;2023-08-01T04:00:53;16.80;99.90
48936;DHT22;34745;52.276;10.528;2023-08-01T04:03:20;16.80;99.90
48936;DHT22;34745;52.276;10.528;2023-08-01T04:05:48;16.90;99.90
48936;DHT22;34745;52.276;10.528;2023-08-01T04:08:15;16.90;99.90
48936;DHT22;34745;52.276;10.528;2023-08-01T04:10:42;16.80;99.90
48936;DHT22;34745;52.276;10.528;2023-08-01T04:13:11;16.90;99.90
48936;DHT22;34745;52.276;10.528;2023-08-01T04:15:38;16.90;99.90
48936;DHT22;34745;52.276;10.528;2023-08-01T04:18:05;16.90;99.90
48936;DHT22;34745;52.276;10.528;2023-08-01T04:20:32;17.00;99.90
48936;DHT22;34745;52.276;10.528;2023-08-01T04:22:59;16.90;99.90
48936;DHT22;34745;52.276;10.528;2023-08-01T04:25:27;16.90;99.90
48936;DHT22;34745;52.276;10.528;2023-08-01T04:27:55;16.90;99.90
48936;DHT22;34745;52.276;10.528;2023-08-01T04:30:23;17.00;99.90
48936;DHT22;34745;52.276;10.528;2023-08-01T04:32:50;17.00;99.90
48936;DHT22;34745;52.276;10.528;2023-08-01T04:35:17;17.00;99.90
48936;DHT22;34745;52.276;10.528;2023-08-01T04:37:44;17.00;99.90
48936;DHT22;34745;52.276;10.528;2023-08-01T04:40:11;17.00;99.90
48936;DHT22;34745;52.276;10.528;2023-08-01T04:42:39;17.00;99.90
48936;DHT22;34745;52.276;10.528;2023-08-01T04:45:07;17.00;99.90
48936;DHT22;34745;52.276;10.528;2023-08-01T04:47:35;16.90;99.90
48936;DHT22;34745;52.276;10.528;2023-08-01T04:50:03;17.00;99.90
48936;DHT22;34745;52.276;10.528;2023-08-01T04:52:30;17.10;99.90
48936;DHT22;34745;52.276;10.528;2023-08-01T04:54:57;17.10;99.90
48936;DHT22;34745;52.276;10.528;2023-08-01T04:57:24;17.00;99.90
48936;DHT22;34745;52.276;10.528;2023-08-01T04:59:51;17.00;99.90
48936;DHT22;34745;52.276;10.528;2023-08-01T05:02:18;17.00;99.90
48936;DHT22;34745;52.276;10.528;2023-08-01T05:04:47;17.00;99.90
48936;DHT22;34745;52.276;10.528;2023-08-01T05:07:14;17.00;99.90
48936;DHT22;34745;52.276;10.528;2023-08-01T05:09:41;17.00;99.90
48936;DHT22;34745;52.276;10.528;2023-08-01T05:12:08;17.00;99.90
48936;DHT22;34745;52.276;10.528;2023-08-01T05:14:36;17.00;99.90
48936;DHT22;34745;52.276;10.528;2023-08-01T05:17:03;16.90;99.90
48936;DHT22;34745;52.276;10.528;2023-08-01T05:19:31;16.90;99.90
48936;DHT22;34745;52.276;10.528;2023-08-01T05:21:59;16.90;99.90
48936;DHT22;34745;52.276;10.528;2023-08-01T05:24:26;16.90;99.90
48936;DHT22;34745;52.276;10.528;2023-08-01T05:26:53;17.00;99.90
48936;DHT22;34745;52.276;10.528;2023-08-01T05:29:21;16.90;99.90
48936;DHT22;34745;52.276;10.528;2023-08-01T05:31:48;16.90;99.90
48936;DHT22;34745;52.276;10.528;2023-08-01T05:34:15;16.80;99.90
48936;DHT22;34745;52.276;10.528;2023-08-01T05:36:42;16.90;99.90
48936;DHT22;34745;52.276;10.528;2023-08-01T05:39:11;16.80;99.90
48936;DHT22;34745;52.276;10.528;2023-08-01T05:41:38;16.90;99.90
48936;DHT22;34745;52.276;10.528;2023-08-01T05:44:05;16.90;99.90
48936;DHT22;34745;52.276;10.528;2023-08-01T05:46:32;16.80;99.90
48936;DHT22;34745;52.276;10.528;2023-08-01T05:48:59;16.80;99.90
48936;DHT22;34745;52.276;10.528;2023-08-01T05:51:26;16.80;99.90
48936;DHT22;34745;52.276;10.528;2023-08-01T05:53:53;16.80;99.90
48936;DHT22;34745;52.276;10.528;2023-08-01T05:56:21;16.80;99.90
48936;DHT22;34745;52.276;10.528;2023-08-01T05:58:49;16.70;99.90
48936;DHT22;34745;52.276;10.528;2023-08-01T06:01:17;16.80;99.90
48936;DHT22;34745;52.276;10.528;2023-08-01T06:03:45;16.70;99.90
48936;DHT22;34745;52.276;10.528;2023-08-01T06:06:12;16.70;99.90
48936;DHT22;34745;52.276;10.528;2023-08-01T06:08:39;16.70;99.90
48936;DHT22;34745;52.276;10.528;2023-08-01T06:11:06;16.60;99.90
48936;DHT22;34745;52.276;10.528;2023-08-01T06:13:34;16.60;99.90
48936;DHT22;34745;52.276;10.528;2023-08-01T06:16:02;16.70;99.90
48936;DHT22;34745;52.276;10.528;2023-08-01T06:18:29;16.70;99.90
48936;DHT22;34745;52.276;10.528;2023-08-01T06:20:56;16.80;99.90
48936;DHT22;34745;52.276;10.528;2023-08-01T06:23:23;16.70;99.90
48936;DHT22;34745;52.276;10.528;2023-08-01T06:25:50;16.70;99.90
48936;DHT22;34745;52.276;10.528;2023-08-01T06:28:17;16.70;99.90
48936;DHT22;34745;52.276;10.528;2023-08-01T06:30:46;16.70;99.90
48936;DHT22;34745;52.276;10.528;2023-08-01T06:33:13;16.70;99.90
48936;DHT22;34745;52.276;10.528;2023-08-01T06:35:40;16.70;99.90
48936;DHT22;34745;52.276;10.528;2023-08-01T06:38:07;16.60;99.90
48936;DHT22;34745;52.276;10.528;2023-08-01T06:40:34;16.60;99.90
48936;DHT22;34745;52.276;10.528;2023-08-01T06:43:01;16.60;99.90
48936;DHT22;34745;52.276;10.528;2023-08-01T06:45:29;16.50;99.90
48936;DHT22;34745;52.276;10.528;2023-08-01T06:47:57;16.60;99.90
48936;DHT22;34745;52.276;10.528;2023-08-01T06:50:24;16.70;99.90
48936;DHT22;34745;52.276;10.528;2023-08-01T06:52:51;16.70;99.90
48936;DHT22;34745;52.276;10.528;2023-08-01T06:55:18;16.70;99.90
48936;DHT22;34745;52.276;10.528;2023-08-01T06:57:45;16.70;99.90
48936;DHT22;34745;52.276;10.528;2023-08-01T07:00:12;16.80;99.90
48936;DHT22;34745;52.276;10.528;2023-08-01T07:02:39;16.80;99.90
48936;DHT22;34745;52.276;10.528;2023-08-01T07:05:09;16.80;99.90
48936;DHT22;34745;52.276;10.528;2023-08-01T07:07:36;16.80;99.90
48936;DHT22;34745;52.276;10.528;2023-08-01T07:10:03;16.80;99.90
48936;DHT22;34745;52.276;10.528;2023-08-01T07:12:30;16.80;99.90
48936;DHT22;34745;52.276;10.528;2023-08-01T07:14:57;16.80;99.90
48936;DHT22;34745;52.276;10.528;2023-08-01T07:17:28;16.70;99.90
48936;DHT22;34745;52.276;10.528;2023-08-01T07:19:55;16.80;99.90
48936;DHT22;34745;52.276;10.528;2023-08-01T07:22:24;16.80;99.90
48936;DHT22;34745;52.276;10.528;2023-08-01T07:24:52;16.80;99.90
48936;DHT22;34745;52.276;10.528;2023-08-01T07:27:20;16.80;99.90
48936;DHT22;34745;52.276;10.528;2023-08-01T07:29:47;16.80;99.90
48936;DHT22;34745;52.276;10.528;2023-08-01T07:32:15;16.80;99.90
48936;DHT22;34745;52.276;10.528;2023-08-01T07:34:42;16.80;99.90
48936;DHT22;34745;52.276;10.528;2023-08-01T07:37:09;16.80;99.90
48936;DHT22;34745;52.276;10.528;2023-08-01T07:39:37;16.80;99.90
48936;DHT22;34745;52.276;10.528;2023-08-01T07:42:04;16.80;99.90
48936;DHT22;34745;52.276;10.528;2023-08-01T07:44:31;16.80;99.90
48936;DHT22;34745;52.276;10.528;2023-08-01T07:46:58;16.80;99.90
48936;DHT22;34745;52.276;10.528;2023-08-01T07:49:26;16.80;99.90
48936;DHT22;34745;52.276;10.528;2023-08-01T07:51:53;16.80;99.90
48936;DHT22;34745;52.276;10.528;2023-08-01T07:54:20;16.80;99.90
48936;DHT22;34745;52.276;10.528;2023-08-01T07:56:49;16.80;99.90
48936;DHT22;34745;52.276;10.528;2023-08-01T07:59:16;16.80;99.90
48936;DHT22;34745;52.276;10.528;2023-08-01T08:01:43;16.70;99.90
48936;DHT22;34745;52.276;10.528;2023-08-01T08:04:09;16.70;99.90
48936;DHT22;34745;52.276;10.528;2023-08-01T08:06:37;16.70;99.90
48936;DHT22;34745;52.276;10.528;2023-08-01T08:09:04;16.60;99.90
48936;DHT22;34745;52.276;10.528;2023-08-01T08:11:32;16.70;99.90
48936;DHT22;34745;52.276;10.528;2023-08-01T08:14:01;16.60;99.90
48936;DHT22;34745;52.276;10.528;2023-08-01T08:16:29;16.70;99.90
48936;DHT22;34745;52.276;10.528;2023-08-01T08:18:56;16.70;99.90
48936;DHT22;34745;52.276;10.528;2023-08-01T08:21:23;16.70;99.90
48936;DHT22;34745;52.276;10.528;2023-08-01T08:23:50;16.70;99.90
48936;DHT22;34745;52.276;10.528;2023-08-01T08:26:17;16.90;99.90
48936;DHT22;34745;52.276;10.528;2023-08-01T08:28:44;16.90;99.90
48936;DHT22;34745;52.276;10.528;2023-08-01T08:31:13;17.00;99.90
48936;DHT22;34745;52.276;10.528;2023-08-01T08:33:40;17.10;99.90
48936;DHT22;34745;52.276;10.528;2023-08-01T08:36:07;17.20;99.90
48936;DHT22;34745;52.276;10.528;2023-08-01T08:38:34;17.20;99.90
48936;DHT22;34745;52.276;10.528;2023-08-01T08:41:07;17.20;99.90
48936;DHT22;34745;52.276;10.528;2023-08-01T08:43:35;17.30;99.90
48936;DHT22;34745;52.276;10.528;2023-08-01T08:46:04;17.30;99.90
48936;DHT22;34745;52.276;10.528;2023-08-01T08:48:32;17.30;99.90
48936;DHT22;34745;52.276;10.528;2023-08-01T08:51:01;17.40;99.90
48936;DHT22;34745;52.276;10.528;2023-08-01T08:53:30;17.50;99.90
48936;DHT22;34745;52.276;10.528;2023-08-01T08:55:59;17.60;99.90
48936;DHT22;34745;52.276;10.528;2023-08-01T08:58:26;17.60;99.90
48936;DHT22;34745;52.276;10.528;2023-08-01T09:00:53;17.70;99.90
48936;DHT22;34745;52.276;10.528;2023-08-01T09:03:20;17.70;99.90
48936;DHT22;34745;52.276;10.528;2023-08-01T09:05:50;17.80;99.90
48936;DHT22;34745;52.276;10.528;2023-08-01T09:08:20;17.80;99.90
48936;DHT22;34745;52.276;10.528;2023-08-01T09:10:47;17.80;99.90
48936;DHT22;34745;52.276;10.528;2023-08-01T09:13:14;17.80;99.90
48936;DHT22;34745;52.276;10.528;2023-08-01T09:15:42;17.70;99.90
48936;DHT22;34745;52.276;10.528;2023-08-01T09:18:12;17.70;99.90
48936;DHT22;34745;52.276;10.528;2023-08-01T09:20:40;17.80;99.90
48936;DHT22;34745;52.276;10.528;2023-08-01T09:23:10;17.80;99.90
48936;DHT22;34745;52.276;10.528;2023-08-01T09:25:38;17.80;99.90
48936;DHT22;34745;52.276;10.528;2023-08-01T09:28:18;17.80;71.90
48936;DHT22;34745;52.276;10.528;2023-08-01T09:30:46;18.00;72.70
48936;DHT22;34745;52.276;10.528;2023-08-01T09:33:14;18.10;79.60
48936;DHT22;34745;52.276;10.528;2023-08-01T09:35:41;18.30;30.20
48936;DHT22;34745;52.276;10.528;2023-08-01T09:38:11;18.30;34.70
48936;DHT22;34745;52.276;10.528;2023-08-01T09:40:39;18.40;34.80
48936;DHT22;34745;52.276;10.528;2023-08-01T09:43:06;18.50;30.40
48936;DHT22;34745;52.276;10.528;2023-08-01T09:45:33;18.40;6.90
48936;DHT22;34745;52.276;10.528;2023-08-01T09:48:02;18.40;13.40
48936;DHT22;34745;52.276;10.528;2023-08-01T09:50:29;18.40;13.50
48936;DHT22;34745;52.276;10.528;2023-08-01T09:53:07;18.40;1.00
48936;DHT22;34745;52.276;10.528;2023-08-01T09:55:35;18.50;1.00
48936;DHT22;34745;52.276;10.528;2023-08-01T09:58:04;18.70;1.00
48936;DHT22;34745;52.276;10.528;2023-08-01T10:00:34;18.90;1.00
48936;DHT22;34745;52.276;10.528;2023-08-01T10:03:03;19.10;1.00
48936;DHT22;34745;52.276;10.528;2023-08-01T10:05:32;19.10;1.00
48936;DHT22;34745;52.276;10.528;2023-08-01T10:08:00;19.10;1.00
48936;DHT22;34745;52.276;10.528;2023-08-01T10:10:28;19.10;1.00
48936;DHT22;34745;52.276;10.528;2023-08-01T10:12:57;19.00;1.00
48936;DHT22;34745;52.276;10.528;2023-08-01T10:15:24;19.20;1.00
48936;DHT22;34745;52.276;10.528;2023-08-01T10:17:52;19.20;1.00
48936;DHT22;34745;52.276;10.528;2023-08-01T10:20:20;19.20;1.00
48936;DHT22;34745;52.276;10.528;2023-08-01T10:22:49;19.10;1.00
48936;DHT22;34745;52.276;10.528;2023-08-01T10:25:17;19.00;1.00
48936;DHT22;34745;52.276;10.528;2023-08-01T10:27:45;18.90;1.00
48936;DHT22;34745;52.276;10.528;2023-08-01T10:30:14;19.00;1.00
48936;DHT22;34745;52.276;10.528;2023-08-01T10:32:41;19.00;1.00
48936;DHT22;34745;52.276;10.528;2023-08-01T10:35:09;19.00;1.00
48936;DHT22;34745;52.276;10.528;2023-08-01T10:37:41;19.00;1.00
48936;DHT22;34745;52.276;10.528;2023-08-01T10:40:08;19.00;1.00
48936;DHT22;34745;52.276;10.528;2023-08-01T10:42:39;19.00;1.00
48936;DHT22;34745;52.276;10.528;2023-08-01T10:45:07;19.10;1.00
48936;DHT22;34745;52.276;10.528;2023-08-01T10:47:36;19.20;1.00
48936;DHT22;34745;52.276;10.528;2023-08-01T10:50:14;19.10;1.00
48936;DHT22;34745;52.276;10.528;2023-08-01T10:52:42;19.10;1.00
48936;DHT22;34745;52.276;10.528;2023-08-01T10:55:10;19.10;1.00
48936;DHT22;34745;52.276;10.528;2023-08-01T10:57:39;19.20;1.00
48936;DHT22;34745;52.276;10.528;2023-08-01T11:00:16;19.20;1.00
48936;DHT22;34745;52.276;10.528;2023-08-01T11:02:50;19.40;1.00
48936;DHT22;34745;52.276;10.528;2023-08-01T11:05:18;19.50;1.00
48936;DHT22;34745;52.276;10.528;2023-08-01T11:07:53;19.50;1.00
48936;DHT22;34745;52.276;10.528;2023-08-01T11:10:23;19.50;1.00
48936;DHT22;34745;52.276;10.528;2023-08-01T11:12:50;19.60;1.00
48936;DHT22;34745;52.276;10.528;2023-08-01T11:15:17;19.70;1.00
48936;DHT22;34745;52.276;10.528;2023-08-01T11:17:47;19.80;1.00
48936;DHT22;34745;52.276;10.528;2023-08-01T11:20:18;19.80;1.00
48936;DHT22;34745;52.276;10.528;2023-08-01T11:22:52;19.90;1.00
48936;DHT22;34745;52.276;10.528;2023-08-01T11:25:20;19.80;1.00
48936;DHT22;34745;52.276;10.528;2023-08-01T11:27:47;19.70;1.00
48936;DHT22;34745;52.276;10.528;2023-08-01T11:30:14;19.70;1.00
48936;DHT22;34745;52.276;10.528;2023-08-01T11:32:41;19.80;1.00
48936;DHT22;34745;52.276;10.528;2023-08-01T11:35:08;19.90;1.00
48936;DHT22;34745;52.276;10.528;2023-08-01T11:37:37;20.00;1.00
48936;DHT22;34745;52.276;10.528;2023-08-01T11:40:06;19.90;1.00
48936;DHT22;34745;52.276;10.528;2023-08-01T11:42:33;19.90;1.00
48936;DHT22;34745;52.276;10.528;2023-08-01T11:45:08;19.90;1.00
48936;DHT22;34745;52.276;10.528;2023-08-01T11:47:35;20.00;1.00
48936;DHT22;34745;52.276;10.528;2023-08-01T11:50:03;20.10;1.00
48936;DHT22;34745;52.276;10.528;2023-08-01T11:52:31;20.10;1.00
48936;DHT22;34745;52.276;10.528;2023-08-01T11:54:59;20.10;1.00
48936;DHT22;34745;52.276;10.528;2023-08-01T11:57:26;20.20;1.00
48936;DHT22;34745;52.276;10.528;2023-08-01T11:59:55;20.30;1.00
48936;DHT22;34745;52.276;10.528;2023-08-01T12:02:23;20.60;1.00
48936;DHT22;34745;52.276;10.528;2023-08-01T12:04:51;21.00;1.00
48936;DHT22;34745;52.276;10.528;2023-08-01T12:07:19;21.20;1.00
48936;DHT22;34745;52.276;10.528;2023-08-01T12:09:55;21.40;1.00
48936;DHT22;34745;52.276;10.528;2023-08-01T12:12:27;21.30;1.00
48936;DHT22;34745;52.276;10.528;2023-08-01T12:14:55;21.00;1.00
48936;DHT22;34745;52.276;10.528;2023-08-01T12:17:22;20.90;1.00
48936;DHT22;34745;52.276;10.528;2023-08-01T12:19:50;20.90;1.00
48936;DHT22;34745;52.276;10.528;2023-08-01T12:22:17;21.00;1.00
48936;DHT22;34745;52.276;10.528;2023-08-01T12:24:44;21.10;1.00
48936;DHT22;34745;52.276;10.528;2023-08-01T12:27:11;21.40;1.00
48936;DHT22;34745;52.276;10.528;2023-08-01T12:29:40;21.80;1.00
48936;DHT22;34745;52.276;10.528;2023-08-01T12:32:07;21.90;1.00
48936;DHT22;34745;52.276;10.528;2023-08-01T12:34:35;22.10;1.00
48936;DHT22;34745;52.276;10.528;2023-08-01T12:37:02;21.80;1.00
48936;DHT22;34745;52.276;10.528;2023-08-01T12:39:29;21.70;1.00
48936;DHT22;34745;52.276;10.528;2023-08-01T12:41:56;21.70;1.00
48936;DHT22;34745;52.276;10.528;2023-08-01T12:44:23;21.60;1.00
48936;DHT22;34745;52.276;10.528;2023-08-01T12:46:51;21.40;1.00
48936;DHT22;34745;52.276;10.528;2023-08-01T12:49:19;21.20;1.00
48936;DHT22;34745;52.276;10.528;2023-08-01T12:51:46;20.90;1.00
48936;DHT22;34745;52.276;10.528;2023-08-01T12:54:17;20.80;1.00
48936;DHT22;34745;52.276;10.528;2023-08-01T12:56:44;20.80;1.00
48936;DHT22;34745;52.276;10.528;2023-08-01T12:59:11;20.80;1.00
48936;DHT22;34745;52.276;10.528;2023-08-01T13:01:38;21.00;1.00
48936;DHT22;34745;52.276;10.528;2023-08-01T13:04:07;21.20;1.00
48936;DHT22;34745;52.276;10.528;2023-08-01T13:06:34;21.40;1.00
48936;DHT22;34745;52.276;10.528;2023-08-01T13:09:01;21.80;1.00
48936;DHT22;34745;52.276;10.528;2023-08-01T13:11:28;22.20;1.00
48936;DHT22;34745;52.276;10.528;2023-08-01T13:13:55;22.40;1.00
48936;DHT22;34745;52.276;10.528;2023-08-01T13:16:23;22.50;1.00
48936;DHT22;34745;52.276;10.528;2023-08-01T13:18:50;22.70;1.00
48936;DHT22;34745;52.276;10.528;2023-08-01T13:21:18;22.20;1.00
48936;DHT22;34745;52.276;10.528;2023-08-01T13:23:45;21.70;1.00
48936;DHT22;34745;52.276;10.528;2023-08-01T13:26:12;21.40;1.00
48936;DHT22;34745;52.276;10.528;2023-08-01T13:28:39;21.10;1.00
48936;DHT22;34745;52.276;10.528;2023-08-01T13:31:06;20.90;1.00
48936;DHT22;34745;52.276;10.528;2023-08-01T13:33:33;20.80;1.00
48936;DHT22;34745;52.276;10.528;2023-08-01T13:36:00;20.70;1.00
48936;DHT22;34745;52.276;10.528;2023-08-01T13:38:29;20.90;1.00
48936;DHT22;34745;52.276;10.528;2023-08-01T13:40:59;21.20;1.00
48936;DHT22;34745;52.276;10.528;2023-08-01T13:43:27;21.60;1.00
48936;DHT22;34745;52.276;10.528;2023-08-01T13:45:54;21.80;1.00
48936;DHT22;34745;52.276;10.528;2023-08-01T13:48:21;22.10;1.00
48936;DHT22;34745;52.276;10.528;2023-08-01T13:50:48;22.30;1.00
48936;DHT22;34745;52.276;10.528;2023-08-01T13:53:15;22.10;1.00
48936;DHT22;34745;52.276;10.528;2023-08-01T13:55:46;21.70;1.00
48936;DHT22;34745;52.276;10.528;2023-08-01T13:58:13;21.00;1.00
48936;DHT22;34745;52.276;10.528;2023-08-01T14:00:40;20.60;1.00
48936;DHT22;34745;52.276;10.528;2023-08-01T14:03:07;20.30;1.00
48936;DHT22;34745;52.276;10.528;2023-08-01T14:05:34;20.10;1.00
48936;DHT22;34745;52.276;10.528;2023-08-01T14:08:01;20.00;1.00
48936;DHT22;34745;52.276;10.528;2023-08-01T14:10:29;20.00;1.00
48936;DHT22;34745;52.276;10.528;2023-08-01T14:12:57;19.70;1.00
48936;DHT22;34745;52.276;10.528;2023-08-01T14:15:24;19.50;1.00
48936;DHT22;34745;52.276;10.528;2023-08-01T14:17:51;19.60;1.00
48936;DHT22;34745;52.276;10.528;2023-08-01T14:20:19;19.70;1.00
48936;DHT22;34745;52.276;10.528;2023-08-01T14:22:47;19.80;1.00
48936;DHT22;34745;52.276;10.528;2023-08-01T14:25:14;19.80;1.00
48936;DHT22;34745;52.276;10.528;2023-08-01T14:27:41;19.50;1.00
48936;DHT22;34745;52.276;10.528;2023-08-01T14:30:10;19.10;1.00
48936;DHT22;34745;52.276;10.528;2023-08-01T14:32:37;19.10;1.00
48936;DHT22;34745;52.276;10.528;2023-08-01T14:35:06;19.00;1.00
48936;DHT22;34745;52.276;10.528;2023-08-01T14:37:34;18.90;1.00
48936;DHT22;34745;52.276;10.528;2023-08-01T14:40:01;18.90;1.00
48936;DHT22;34745;52.276;10.528;2023-08-01T14:42:27;18.80;1.00
48936;DHT22;34745;52.276;10.528;2023-08-01T14:44:55;18.80;1.00
48936;DHT22;34745;52.276;10.528;2023-08-01T14:47:25;18.60;1.00
48936;DHT22;34745;52.276;10.528;2023-08-01T14:49:52;18.60;1.00
48936;DHT22;34745;52.276;10.528;2023-08-01T14:52:19;18.60;1.00
48936;DHT22;34745;52.276;10.528;2023-08-01T14:54:51;18.60;1.00
48936;DHT22;34745;52.276;10.528;2023-08-01T14:57:19;18.70;1.00
48936;DHT22;34745;52.276;10.528;2023-08-01T14:59:46;18.90;1.00
48936;DHT22;34745;52.276;10.528;2023-08-01T15:02:13;19.30;1.00
48936;DHT22;34745;52.276;10.528;2023-08-01T15:04:42;19.60;1.00
48936;DHT22;34745;52.276;10.528;2023-08-01T15:07:09;18.90;1.00
48936;DHT22;34745;52.276;10.528;2023-08-01T15:09:36;20.00;1.00
48936;DHT22;34745;52.276;10.528;2023-08-01T15:12:04;19.30;1.00
48936;DHT22;34745;52.276;10.528;2023-08-01T15:14:31;19.50;1.00
48936;DHT22;34745;52.276;10.528;2023-08-01T15:16:58;20.20;1.00
48936;DHT22;34745;52.276;10.528;2023-08-01T15:19:25;20.70;1.00
48936;DHT22;34745;52.276;10.528;2023-08-01T15:21:54;20.60;1.00
48936;DHT22;34745;52.276;10.528;2023-08-01T15:24:21;20.80;1.00
48936;DHT22;34745;52.276;10.528;2023-08-01T15:26:48;20.80;1.00